createdAt,value
2024-02-26T00:00:43.037Z,3.08
2024-02-26T00:01:44.863Z,3.05
2024-02-26T00:02:46.497Z,3.07
2024-02-26T00:03:48.477Z,3.13
2024-02-26T00:04:51.154Z,3.16
2024-02-26T00:05:53.041Z,3.11
2024-02-26T00:06:55.915Z,3.06
2024-02-26T00:07:57.660Z,3.03
2024-02-26T00:08:59.405Z,3.00
2024-02-26T00:10:01.143Z,2.94
2024-02-26T00:11:02.786Z,2.95
2024-02-26T00:12:05.333Z,2.99
2024-02-26T00:13:06.932Z,3.01
2024-02-26T00:14:08.501Z,3.04
2024-02-26T00:15:12.171Z,2.94
2024-02-26T00:16:13.816Z,2.78
2024-02-26T00:17:15.418Z,2.62
2024-02-26T00:18:17.140Z,2.55
2024-02-26T00:19:18.961Z,2.59
2024-02-26T00:20:20.707Z,2.67
2024-02-26T00:21:22.390Z,2.75
2024-02-26T00:22:24.006Z,2.80
2024-02-26T00:23:25.770Z,2.83
2024-02-26T00:24:27.420Z,2.85
2024-02-26T00:25:29.035Z,2.87
2024-02-26T00:26:30.667Z,2.82
2024-02-26T00:27:32.272Z,2.73
2024-02-26T00:28:33.853Z,2.70
2024-02-26T00:29:35.714Z,2.69
2024-02-26T00:30:37.344Z,2.71
2024-02-26T00:31:39.275Z,2.74
2024-02-26T00:32:41.080Z,2.75
2024-02-26T00:33:42.881Z,2.78
2024-02-26T00:34:44.857Z,2.77
2024-02-26T00:35:46.475Z,2.70
2024-02-26T00:36:48.045Z,2.68
2024-02-26T00:37:49.692Z,2.73
2024-02-26T00:38:53.984Z,2.77
2024-02-26T00:39:55.614Z,2.82
2024-02-26T00:40:57.249Z,2.83
2024-02-26T00:41:58.877Z,2.88
2024-02-26T00:43:00.549Z,2.88
2024-02-26T00:44:02.170Z,2.85
2024-02-26T00:45:04.104Z,2.85
2024-02-26T00:46:05.964Z,2.83
2024-02-26T00:47:07.558Z,2.82
2024-02-26T00:48:09.339Z,2.79
2024-02-26T00:49:11.152Z,2.75
2024-02-26T00:50:12.827Z,2.62
2024-02-26T00:51:14.507Z,2.55
2024-02-26T00:52:16.127Z,2.55
2024-02-26T00:53:17.722Z,2.59
2024-02-26T00:54:19.492Z,2.56
2024-02-26T00:55:21.307Z,2.58
2024-02-26T00:56:23.426Z,2.61
2024-02-26T00:57:25.497Z,2.64
2024-02-26T00:58:27.370Z,2.63
2024-02-26T00:59:28.968Z,2.64
2024-02-26T01:00:30.583Z,2.65
2024-02-26T01:01:32.195Z,2.64
2024-02-26T01:02:33.825Z,2.57
2024-02-26T01:03:35.597Z,2.54
2024-02-26T01:04:37.337Z,2.50
2024-02-26T01:05:39.185Z,2.51
2024-02-26T01:06:40.957Z,2.54
2024-02-26T01:07:42.820Z,2.49
2024-02-26T01:08:44.593Z,2.47
2024-02-26T01:09:46.191Z,2.36
2024-02-26T01:10:47.817Z,2.42
2024-02-26T01:11:49.530Z,2.43
2024-02-26T01:12:51.157Z,2.44
2024-02-26T01:13:57.338Z,2.46
2024-02-26T01:14:59.102Z,2.44
2024-02-26T01:16:01.815Z,2.43
2024-02-26T01:17:03.934Z,2.41
2024-02-26T01:18:05.722Z,2.43
2024-02-26T01:19:07.584Z,2.45
2024-02-26T01:20:10.080Z,2.35
2024-02-26T01:21:11.815Z,2.24
2024-02-26T01:22:13.637Z,2.14
2024-02-26T01:23:15.278Z,2.05
2024-02-26T01:24:16.981Z,2.01
2024-02-26T01:25:19.304Z,2.05
2024-02-26T01:26:20.905Z,2.14
2024-02-26T01:27:22.569Z,2.16
2024-02-26T01:28:24.203Z,2.21
2024-02-26T01:29:25.797Z,2.23
2024-02-26T01:30:27.471Z,2.17
2024-02-26T01:31:29.523Z,2.11
2024-02-26T01:32:31.516Z,2.14
2024-02-26T01:33:33.231Z,2.19
2024-02-26T01:34:35.265Z,2.22
2024-02-26T01:35:37.140Z,2.16
2024-02-26T01:36:38.799Z,2.12
2024-02-26T01:37:40.462Z,2.11
2024-02-26T01:38:42.083Z,2.09
2024-02-26T01:39:43.754Z,2.12
2024-02-26T01:40:45.345Z,2.13
2024-02-26T01:41:46.941Z,2.15
2024-02-26T01:42:49.586Z,2.18
2024-02-26T01:43:51.279Z,2.20
2024-02-26T01:44:52.892Z,2.21
2024-02-26T01:45:55.181Z,2.26
2024-02-26T01:46:56.881Z,2.21
2024-02-26T01:47:58.964Z,2.17
2024-02-26T01:49:02.395Z,2.15
2024-02-26T01:50:04.552Z,2.15
2024-02-26T01:51:06.742Z,2.10
2024-02-26T01:52:09.852Z,2.09
2024-02-26T01:53:11.657Z,2.08
2024-02-26T01:54:13.565Z,2.06
2024-02-26T01:55:15.920Z,2.08
2024-02-26T01:56:19.251Z,2.06
2024-02-26T01:57:21.457Z,2.07
2024-02-26T01:58:23.760Z,2.09
2024-02-26T01:59:25.766Z,2.07
2024-02-26T02:00:27.562Z,2.11
2024-02-26T02:01:32.126Z,2.10
2024-02-26T02:02:33.781Z,2.13
2024-02-26T02:03:35.530Z,2.14
2024-02-26T02:04:37.708Z,2.14
2024-02-26T02:05:42.991Z,2.16
2024-02-26T02:06:47.442Z,2.09
2024-02-26T02:07:50.350Z,2.05
2024-02-26T02:08:52.252Z,2.04
2024-02-26T02:09:54.615Z,2.06
2024-02-26T02:10:56.604Z,2.08
2024-02-26T02:11:59.293Z,2.11
2024-02-26T02:13:00.911Z,2.11
2024-02-26T02:14:02.507Z,2.10
2024-02-26T02:15:05.151Z,2.11
2024-02-26T02:16:07.205Z,2.07
2024-02-26T02:17:08.872Z,2.02
2024-02-26T02:18:10.637Z,1.95
2024-02-26T02:19:12.439Z,1.87
2024-02-26T02:20:18.582Z,1.84
2024-02-26T02:21:20.325Z,1.76
2024-02-26T02:22:22.001Z,1.70
2024-02-26T02:23:23.596Z,1.62
2024-02-26T02:24:25.266Z,1.58
2024-02-26T02:25:27.263Z,1.59
2024-02-26T02:26:28.890Z,1.63
2024-02-26T02:27:30.851Z,1.68
2024-02-26T02:28:32.766Z,1.71
2024-02-26T02:29:34.388Z,1.72
2024-02-26T02:30:37.205Z,1.77
2024-02-26T02:31:39.214Z,1.81
2024-02-26T02:32:41.955Z,1.81
2024-02-26T02:33:44.282Z,1.81
2024-02-26T02:34:46.797Z,1.84
2024-02-26T02:35:50.405Z,1.86
2024-02-26T02:36:54.713Z,1.82
2024-02-26T02:37:58.446Z,1.78
2024-02-26T02:39:00.131Z,1.71
2024-02-26T02:40:02.198Z,1.66
2024-02-26T02:41:03.923Z,1.57
2024-02-26T02:42:06.886Z,1.51
2024-02-26T02:43:08.487Z,1.50
2024-02-26T02:44:10.069Z,1.51
2024-02-26T02:45:11.795Z,1.55
2024-02-26T02:46:13.475Z,1.60
2024-02-26T02:47:15.074Z,1.64
2024-02-26T02:48:16.824Z,1.68
2024-02-26T02:49:18.624Z,1.68
2024-02-26T02:50:20.364Z,1.68
2024-02-26T02:51:22.630Z,1.70
2024-02-26T02:52:24.272Z,1.73
2024-02-26T02:53:25.867Z,1.71
2024-02-26T02:54:27.596Z,1.72
2024-02-26T02:55:29.287Z,1.72
2024-02-26T02:56:30.912Z,1.72
2024-02-26T02:57:33.715Z,1.68
2024-02-26T02:58:35.341Z,1.67
2024-02-26T02:59:38.325Z,1.69
2024-02-26T03:00:40.099Z,1.70
2024-02-26T03:01:41.822Z,1.72
2024-02-26T03:02:44.038Z,1.74
2024-02-26T03:03:45.823Z,1.73
2024-02-26T03:04:47.505Z,1.74
2024-02-26T03:05:49.215Z,1.74
2024-02-26T03:06:50.934Z,1.73
2024-02-26T03:07:53.751Z,1.75
2024-02-26T03:08:56.047Z,1.74
2024-02-26T03:09:57.757Z,1.70
2024-02-26T03:11:00.034Z,1.70
2024-02-26T03:12:01.745Z,1.70
2024-02-26T03:13:03.801Z,1.68
2024-02-26T03:14:06.060Z,1.70
2024-02-26T03:15:07.940Z,1.70
2024-02-26T03:16:09.654Z,1.70
2024-02-26T03:17:11.318Z,1.69
2024-02-26T03:18:12.993Z,1.67
2024-02-26T03:19:18.199Z,1.64
2024-02-26T03:20:20.627Z,1.61
2024-02-26T03:21:22.564Z,1.62
2024-02-26T03:22:24.259Z,1.58
2024-02-26T03:23:25.890Z,1.58
2024-02-26T03:24:27.600Z,1.58
2024-02-26T03:25:29.215Z,1.59
2024-02-26T03:26:32.348Z,1.53
2024-02-26T03:27:34.018Z,1.50
2024-02-26T03:28:35.629Z,1.50
2024-02-26T03:29:38.447Z,1.49
2024-02-26T03:30:40.070Z,1.45
2024-02-26T03:31:41.907Z,1.44
2024-02-26T03:32:43.678Z,1.33
2024-02-26T03:33:45.563Z,1.30
2024-02-26T03:34:47.717Z,1.28
2024-02-26T03:35:49.464Z,1.26
2024-02-26T03:36:51.078Z,1.31
2024-02-26T03:37:52.924Z,1.34
2024-02-26T03:38:54.620Z,1.34
2024-02-26T03:39:58.276Z,1.32
2024-02-26T03:40:59.934Z,1.31
2024-02-26T03:42:01.838Z,1.32
2024-02-26T03:43:05.498Z,1.31
2024-02-26T03:44:07.127Z,1.27
2024-02-26T03:45:10.316Z,1.26
2024-02-26T03:46:13.124Z,1.28
2024-02-26T03:47:14.692Z,1.26
2024-02-26T03:48:16.374Z,1.31
2024-02-26T03:49:19.192Z,1.34
2024-02-26T03:50:20.890Z,1.33
2024-02-26T03:51:22.556Z,1.34
2024-02-26T03:52:24.283Z,1.38
2024-02-26T03:53:25.960Z,1.37
2024-02-26T03:54:27.577Z,1.39
2024-02-26T03:55:29.225Z,1.34
2024-02-26T03:56:30.869Z,1.37
2024-02-26T03:57:32.445Z,1.33
2024-02-26T03:58:34.078Z,1.27
2024-02-26T03:59:35.697Z,1.20
2024-02-26T04:00:38.338Z,1.15
2024-02-26T04:01:40.159Z,1.10
2024-02-26T04:02:41.794Z,1.02
2024-02-26T04:03:43.424Z,1.01
2024-02-26T04:04:45.063Z,1.02
2024-02-26T04:05:46.818Z,1.05
2024-02-26T04:06:48.681Z,1.07
2024-02-26T04:07:50.357Z,1.09
2024-02-26T04:08:51.966Z,1.10
2024-02-26T04:09:53.626Z,1.10
2024-02-26T04:10:55.254Z,1.10
2024-02-26T04:11:56.897Z,1.09
2024-02-26T04:12:58.526Z,1.14
2024-02-26T04:14:00.165Z,1.17
2024-02-26T04:15:01.821Z,1.17
2024-02-26T04:16:03.861Z,1.19
2024-02-26T04:17:05.528Z,1.21
2024-02-26T04:18:07.327Z,1.18
2024-02-26T04:19:09.174Z,1.21
2024-02-26T04:20:15.191Z,1.23
2024-02-26T04:21:16.834Z,1.22
2024-02-26T04:22:18.565Z,1.18
2024-02-26T04:23:20.152Z,1.14
2024-02-26T04:24:21.767Z,1.14
2024-02-26T04:25:23.440Z,1.09
2024-02-26T04:26:25.308Z,1.04
2024-02-26T04:27:26.999Z,1.06
2024-02-26T04:28:30.116Z,1.00
2024-02-26T04:29:31.721Z,1.02
2024-02-26T04:30:33.363Z,1.03
2024-02-26T04:31:35.032Z,1.02
2024-02-26T04:32:36.677Z,1.02
2024-02-26T04:33:38.552Z,0.98
2024-02-26T04:34:40.441Z,0.97
2024-02-26T04:35:42.141Z,0.97
2024-02-26T04:36:43.787Z,0.98
2024-02-26T04:37:45.403Z,0.98
2024-02-26T04:38:47.202Z,1.00
2024-02-26T04:39:51.068Z,0.99
2024-02-26T04:40:52.922Z,0.97
2024-02-26T04:41:54.565Z,0.94
2024-02-26T04:42:56.166Z,0.90
2024-02-26T04:43:57.784Z,0.87
2024-02-26T04:44:59.413Z,0.86
2024-02-26T04:46:01.028Z,0.88
2024-02-26T04:47:03.022Z,0.87
2024-02-26T04:48:05.166Z,0.91
2024-02-26T04:49:07.196Z,0.97
2024-02-26T04:50:09.297Z,0.97
2024-02-26T04:51:11.036Z,0.92
2024-02-26T04:52:12.728Z,0.83
2024-02-26T04:53:14.407Z,0.79
2024-02-26T04:54:16.357Z,0.77
2024-02-26T04:55:18.033Z,0.77
2024-02-26T04:56:19.696Z,0.81
2024-02-26T04:57:22.628Z,0.84
2024-02-26T04:58:24.336Z,0.87
2024-02-26T04:59:25.950Z,0.91
2024-02-26T05:00:27.598Z,0.97
2024-02-26T05:01:29.818Z,0.97
2024-02-26T05:02:33.347Z,1.01
2024-02-26T05:03:37.087Z,1.04
2024-02-26T05:04:38.985Z,1.05
2024-02-26T05:05:44.453Z,1.04
2024-02-26T05:06:46.179Z,1.02
2024-02-26T05:07:47.829Z,0.99
2024-02-26T05:08:49.452Z,0.97
2024-02-26T05:09:51.163Z,0.94
2024-02-26T05:10:52.801Z,0.89
2024-02-26T05:11:54.496Z,0.87
2024-02-26T05:12:56.136Z,0.87
2024-02-26T05:13:58.123Z,0.85
2024-02-26T05:15:00.233Z,0.84
2024-02-26T05:16:01.975Z,0.80
2024-02-26T05:17:03.655Z,0.78
2024-02-26T05:18:05.841Z,0.77
2024-02-26T05:19:07.587Z,0.77
2024-02-26T05:20:09.985Z,0.83
2024-02-26T05:21:11.620Z,0.84
2024-02-26T05:22:13.856Z,0.88
2024-02-26T05:23:15.453Z,0.88
2024-02-26T05:24:18.459Z,0.87
2024-02-26T05:25:20.430Z,0.88
2024-02-26T05:26:25.065Z,0.87
2024-02-26T05:27:26.697Z,0.85
2024-02-26T05:28:28.326Z,0.84
2024-02-26T05:29:29.939Z,0.83
2024-02-26T05:30:31.583Z,0.78
2024-02-26T05:31:33.292Z,0.75
2024-02-26T05:32:34.900Z,0.69
2024-02-26T05:33:36.639Z,0.65
2024-02-26T05:34:38.406Z,0.60
2024-02-26T05:35:40.070Z,0.58
2024-02-26T05:36:41.701Z,0.56
2024-02-26T05:37:43.325Z,0.56
2024-02-26T05:38:47.554Z,0.58
2024-02-26T05:39:49.378Z,0.59
2024-02-26T05:40:53.375Z,0.59
2024-02-26T05:41:55.027Z,0.58
2024-02-26T05:42:56.958Z,0.56
2024-02-26T05:43:59.445Z,0.54
2024-02-26T05:45:06.074Z,0.54
2024-02-26T05:46:07.719Z,0.53
2024-02-26T05:47:09.308Z,0.52
2024-02-26T05:48:11.186Z,0.51
2024-02-26T05:49:12.932Z,0.49
2024-02-26T05:50:15.657Z,0.47
2024-02-26T05:51:17.496Z,0.46
2024-02-26T05:52:19.130Z,0.46
2024-02-26T05:53:20.753Z,0.45
2024-02-26T05:54:22.389Z,0.44
2024-02-26T05:55:24.081Z,0.44
2024-02-26T05:56:25.693Z,0.44
2024-02-26T05:57:27.350Z,0.45
2024-02-26T05:58:29.051Z,0.51
2024-02-26T05:59:30.661Z,0.54
2024-02-26T06:00:32.713Z,0.60
2024-02-26T06:01:34.505Z,0.65
2024-02-26T06:02:36.133Z,0.68
2024-02-26T06:03:37.846Z,0.71
2024-02-26T06:04:39.870Z,0.70
2024-02-26T06:05:41.542Z,0.73
2024-02-26T06:06:44.376Z,0.74
2024-02-26T06:07:46.167Z,0.76
2024-02-26T06:08:47.834Z,0.76
2024-02-26T06:09:49.718Z,0.75
2024-02-26T06:10:51.362Z,0.78
2024-02-26T06:11:53.482Z,0.79
2024-02-26T06:12:55.136Z,0.80
2024-02-26T06:13:56.754Z,0.78
2024-02-26T06:14:59.108Z,0.79
2024-02-26T06:16:00.733Z,0.78
2024-02-26T06:17:02.311Z,0.78
2024-02-26T06:18:04.059Z,0.79
2024-02-26T06:19:05.846Z,0.78
2024-02-26T06:20:12.791Z,0.80
2024-02-26T06:21:14.581Z,0.80
2024-02-26T06:22:16.266Z,0.79
2024-02-26T06:23:18.147Z,0.82
2024-02-26T06:24:21.836Z,0.81
2024-02-26T06:25:23.484Z,0.83
2024-02-26T06:26:25.117Z,0.84
2024-02-26T06:27:26.878Z,0.84
2024-02-26T06:28:31.456Z,0.81
2024-02-26T06:29:33.097Z,0.78
2024-02-26T06:30:34.770Z,0.76
2024-02-26T06:31:36.395Z,0.72
2024-02-26T06:32:41.330Z,0.73
2024-02-26T06:33:43.277Z,0.71
2024-02-26T06:34:45.136Z,0.69
2024-02-26T06:35:46.841Z,0.70
2024-02-26T06:36:48.448Z,0.71
2024-02-26T06:37:53.589Z,0.74
2024-02-26T06:38:55.541Z,0.75
2024-02-26T06:39:57.302Z,0.77
2024-02-26T06:40:59.099Z,0.78
2024-02-26T06:42:03.489Z,0.78
2024-02-26T06:43:05.196Z,0.81
2024-02-26T06:44:07.015Z,0.81
2024-02-26T06:45:09.268Z,0.83
2024-02-26T06:46:11.011Z,0.86
2024-02-26T06:47:13.347Z,0.85
2024-02-26T06:48:15.090Z,0.85
2024-02-26T06:49:16.866Z,0.86
2024-02-26T06:50:18.738Z,0.87
2024-02-26T06:51:20.377Z,0.88
2024-02-26T06:52:21.980Z,0.88
2024-02-26T06:53:23.811Z,0.91
2024-02-26T06:54:25.511Z,0.89
2024-02-26T06:55:27.129Z,0.88
2024-02-26T06:56:29.459Z,0.89
2024-02-26T06:57:31.090Z,0.88
2024-02-26T06:58:32.737Z,0.87
2024-02-26T06:59:34.352Z,0.87
2024-02-26T07:00:36.565Z,0.88
2024-02-26T07:01:38.237Z,0.89
2024-02-26T07:02:40.331Z,0.91
2024-02-26T07:03:42.413Z,0.92
2024-02-26T07:04:44.522Z,0.94
2024-02-26T07:05:47.232Z,0.96
2024-02-26T07:06:49.119Z,0.99
2024-02-26T07:07:50.889Z,1.00
2024-02-26T07:08:52.521Z,1.03
2024-02-26T07:09:54.127Z,1.04
2024-02-26T07:10:56.002Z,1.07
2024-02-26T07:12:01.139Z,1.09
2024-02-26T07:13:03.152Z,1.08
2024-02-26T07:14:04.732Z,1.10
2024-02-26T07:15:08.997Z,1.12
2024-02-26T07:16:11.473Z,1.14
2024-02-26T07:17:13.088Z,1.16
2024-02-26T07:18:14.901Z,1.16
2024-02-26T07:19:16.704Z,1.18
2024-02-26T07:20:19.518Z,1.19
2024-02-26T07:21:21.225Z,1.19
2024-02-26T07:22:22.842Z,1.20
2024-02-26T07:23:24.402Z,1.20
2024-02-26T07:24:26.054Z,1.20
2024-02-26T07:25:27.654Z,1.22
2024-02-26T07:26:31.433Z,1.23
2024-02-26T07:27:33.123Z,1.22
2024-02-26T07:28:35.050Z,1.24
2024-02-26T07:29:36.654Z,1.27
2024-02-26T07:30:38.272Z,1.28
2024-02-26T07:31:39.923Z,1.29
2024-02-26T07:32:41.589Z,1.31
2024-02-26T07:33:43.309Z,1.32
2024-02-26T07:34:45.923Z,1.34
2024-02-26T07:35:47.800Z,1.37
2024-02-26T07:36:49.422Z,1.39
2024-02-26T07:37:51.496Z,1.42
2024-02-26T07:38:55.311Z,1.44
2024-02-26T07:39:56.978Z,1.46
2024-02-26T07:41:03.156Z,1.49
2024-02-26T07:42:05.803Z,1.52
2024-02-26T07:43:07.483Z,1.60
2024-02-26T07:44:10.167Z,1.63
2024-02-26T07:45:12.441Z,1.69
2024-02-26T07:46:14.178Z,1.74
2024-02-26T07:47:15.795Z,1.76
2024-02-26T07:48:17.561Z,1.82
2024-02-26T07:49:19.229Z,1.86
2024-02-26T07:50:21.035Z,1.93
2024-02-26T07:51:23.645Z,1.98
2024-02-26T07:52:25.455Z,2.02
2024-02-26T07:53:27.070Z,2.06
2024-02-26T07:54:28.745Z,2.12
2024-02-26T07:55:30.440Z,2.15
2024-02-26T07:56:32.050Z,2.19
2024-02-26T07:57:34.900Z,2.26
2024-02-26T07:58:36.712Z,2.31
2024-02-26T07:59:38.505Z,2.38
2024-02-26T08:00:40.102Z,2.42
2024-02-26T08:01:42.779Z,2.48
2024-02-26T08:02:45.257Z,2.51
2024-02-26T08:03:46.975Z,2.55
2024-02-26T08:04:48.662Z,2.61
2024-02-26T08:05:50.307Z,2.64
2024-02-26T08:06:52.084Z,2.66
2024-02-26T08:07:53.777Z,2.70
2024-02-26T08:08:58.273Z,2.73
2024-02-26T08:09:59.903Z,2.77
2024-02-26T08:11:01.491Z,2.79
2024-02-26T08:12:03.382Z,2.83
2024-02-26T08:13:07.858Z,2.86
2024-02-26T08:14:09.525Z,2.90
2024-02-26T08:15:12.422Z,2.95
2024-02-26T08:16:14.181Z,3.01
2024-02-26T08:17:15.785Z,3.04
2024-02-26T08:18:17.679Z,3.08
2024-02-26T08:19:20.062Z,3.15
2024-02-26T08:20:21.795Z,3.22
2024-02-26T08:21:23.532Z,3.25
2024-02-26T08:22:25.202Z,3.32
2024-02-26T08:23:27.328Z,3.37
2024-02-26T08:24:29.326Z,3.44
2024-02-26T08:25:30.942Z,3.50
2024-02-26T08:26:32.542Z,3.57
2024-02-26T08:27:34.320Z,3.65
2024-02-26T08:28:38.022Z,3.72
2024-02-26T08:29:39.632Z,3.76
2024-02-26T08:30:41.216Z,3.81
2024-02-26T08:31:42.857Z,3.90
2024-02-26T08:32:51.908Z,3.96
2024-02-26T08:33:54.555Z,4.04
2024-02-26T08:34:56.536Z,4.11
2024-02-26T08:35:58.235Z,4.16
2024-02-26T08:36:59.848Z,4.25
2024-02-26T08:38:01.436Z,4.32
2024-02-26T08:39:03.193Z,4.38
2024-02-26T08:40:07.168Z,4.44
2024-02-26T08:41:09.904Z,4.53
2024-02-26T08:42:11.570Z,4.59
2024-02-26T08:43:13.202Z,4.66
2024-02-26T08:44:14.855Z,4.74
2024-02-26T08:45:16.604Z,4.80
2024-02-26T08:46:18.306Z,4.86
2024-02-26T08:47:19.927Z,4.95
2024-02-26T08:48:21.657Z,5.01
2024-02-26T08:49:24.948Z,5.06
2024-02-26T08:50:26.765Z,5.14
2024-02-26T08:51:28.436Z,5.22
2024-02-26T08:52:30.136Z,5.27
2024-02-26T08:53:38.132Z,5.33
2024-02-26T08:54:44.229Z,5.41
2024-02-26T08:55:45.838Z,5.46
2024-02-26T08:56:47.545Z,5.52
2024-02-26T08:57:49.607Z,5.59
2024-02-26T08:58:54.459Z,5.69
2024-02-26T08:59:56.179Z,5.74
2024-02-26T09:00:57.852Z,5.80
2024-02-26T09:01:59.488Z,5.89
2024-02-26T09:03:05.152Z,5.92
2024-02-26T09:04:07.413Z,5.97
2024-02-26T09:05:09.129Z,6.03
2024-02-26T09:06:11.063Z,6.05
2024-02-26T09:07:12.752Z,6.09
2024-02-26T09:08:14.425Z,6.14
2024-02-26T09:09:16.025Z,6.16
2024-02-26T09:10:17.791Z,6.22
2024-02-26T09:11:19.381Z,6.24
2024-02-26T09:12:21.126Z,6.30
2024-02-26T09:13:22.812Z,6.34
2024-02-26T09:14:26.719Z,6.40
2024-02-26T09:15:30.046Z,6.42
2024-02-26T09:16:31.704Z,6.49
2024-02-26T09:17:33.435Z,6.51
2024-02-26T09:18:35.136Z,6.55
2024-02-26T09:19:36.893Z,6.58
2024-02-26T09:20:38.551Z,6.63
2024-02-26T09:21:44.209Z,6.66
2024-02-26T09:22:45.828Z,6.68
2024-02-26T09:23:47.416Z,6.72
2024-02-26T09:24:50.757Z,6.76
2024-02-26T09:25:52.346Z,6.81
2024-02-26T09:26:53.991Z,6.83
2024-02-26T09:27:55.648Z,6.86
2024-02-26T09:28:57.272Z,6.89
2024-02-26T09:29:58.914Z,6.92
2024-02-26T09:31:00.566Z,6.96
2024-02-26T09:32:02.219Z,7.02
2024-02-26T09:33:04.055Z,7.06
2024-02-26T09:34:06.102Z,7.08
2024-02-26T09:35:08.223Z,7.11
2024-02-26T09:36:11.929Z,7.13
2024-02-26T09:37:20.968Z,7.19
2024-02-26T09:38:24.782Z,7.22
2024-02-26T09:39:26.440Z,7.26
2024-02-26T09:40:28.938Z,7.31
2024-02-26T09:41:31.695Z,7.34
2024-02-26T09:42:34.477Z,7.39
2024-02-26T09:43:40.775Z,7.43
2024-02-26T09:44:44.632Z,7.46
2024-02-26T09:45:46.519Z,7.46
2024-02-26T09:46:50.858Z,7.48
2024-02-26T09:47:52.909Z,7.51
2024-02-26T09:48:55.188Z,7.53
2024-02-26T09:49:57.918Z,7.55
2024-02-26T09:50:59.572Z,7.58
2024-02-26T09:52:03.489Z,7.60
2024-02-26T09:53:06.512Z,7.65
2024-02-26T09:54:10.859Z,7.69
2024-02-26T09:55:12.523Z,7.72
2024-02-26T09:56:14.442Z,7.74
2024-02-26T09:57:18.295Z,7.78
2024-02-26T09:58:20.291Z,7.82
2024-02-26T09:59:22.241Z,7.85
2024-02-26T10:00:26.272Z,7.86
2024-02-26T10:01:28.446Z,7.90
2024-02-26T10:02:31.442Z,7.91
2024-02-26T10:03:41.127Z,7.92
2024-02-26T10:04:46.900Z,7.97
2024-02-26T10:05:51.602Z,8.00
2024-02-26T10:06:53.974Z,8.03
2024-02-26T10:07:58.620Z,8.06
2024-02-26T10:09:01.338Z,8.07
2024-02-26T10:10:04.432Z,8.09
2024-02-26T10:11:07.695Z,8.12
2024-02-26T10:12:16.904Z,8.16
2024-02-26T10:13:18.721Z,8.18
2024-02-26T10:14:20.329Z,8.22
2024-02-26T10:15:21.961Z,8.25
2024-02-26T10:16:23.891Z,8.30
2024-02-26T10:17:26.182Z,8.32
2024-02-26T10:18:29.144Z,8.37
2024-02-26T10:19:34.469Z,8.38
2024-02-26T10:20:37.528Z,8.41
2024-02-26T10:21:39.202Z,8.42
2024-02-26T10:22:40.829Z,8.45
2024-02-26T10:23:44.776Z,8.47
2024-02-26T10:24:48.187Z,8.50
2024-02-26T10:25:56.651Z,8.52
2024-02-26T10:26:58.861Z,8.55
2024-02-26T10:28:04.584Z,8.58
2024-02-26T10:29:06.172Z,8.63
2024-02-26T10:30:24.468Z,8.67
2024-02-26T10:31:26.445Z,8.70
2024-02-26T10:32:28.114Z,8.73
2024-02-26T10:33:31.537Z,8.76
2024-02-26T10:34:36.215Z,8.79
2024-02-26T10:35:41.554Z,8.83
2024-02-26T10:36:52.297Z,8.88
2024-02-26T10:37:55.698Z,8.90
2024-02-26T10:38:57.368Z,8.95
2024-02-26T10:39:59.018Z,9.01
2024-02-26T10:41:00.660Z,9.04
2024-02-26T10:42:07.856Z,9.06
2024-02-26T10:43:09.485Z,9.09
2024-02-26T10:44:13.729Z,9.09
2024-02-26T10:45:16.769Z,9.12
2024-02-26T10:46:19.032Z,9.14
2024-02-26T10:47:20.814Z,9.16
2024-02-26T10:48:22.819Z,9.17
2024-02-26T10:49:25.091Z,9.19
2024-02-26T10:50:26.929Z,9.18
2024-02-26T10:51:30.767Z,9.19
2024-02-26T10:52:34.529Z,9.23
2024-02-26T10:53:37.449Z,9.24
2024-02-26T10:54:42.428Z,9.26
2024-02-26T10:55:49.779Z,9.27
2024-02-26T10:56:52.023Z,9.26
2024-02-26T10:57:54.332Z,9.28
2024-02-26T10:58:59.826Z,9.32
2024-02-26T11:00:05.382Z,9.34
2024-02-26T11:01:07.575Z,9.33
2024-02-26T11:02:11.169Z,9.35
2024-02-26T11:03:14.867Z,9.38
2024-02-26T11:04:18.301Z,9.40
2024-02-26T11:05:20.646Z,9.41
2024-02-26T11:06:23.319Z,9.43
2024-02-26T11:07:26.550Z,9.46
2024-02-26T11:08:30.243Z,9.48
2024-02-26T11:09:33.812Z,9.53
2024-02-26T11:10:37.152Z,9.55
2024-02-26T11:11:38.752Z,9.59
2024-02-26T11:12:41.220Z,9.64
2024-02-26T11:13:46.325Z,9.65
2024-02-26T11:14:49.963Z,9.68
2024-02-26T11:15:52.758Z,9.69
2024-02-26T11:16:56.795Z,9.71
2024-02-26T11:17:59.243Z,9.73
2024-02-26T11:19:02.496Z,9.76
2024-02-26T11:20:05.159Z,9.77
2024-02-26T11:21:09.519Z,9.82
2024-02-26T11:22:18.770Z,9.81
2024-02-26T11:23:26.249Z,9.85
2024-02-26T11:24:28.246Z,9.86
2024-02-26T11:25:29.887Z,9.88
2024-02-26T11:26:31.883Z,9.88
2024-02-26T11:27:42.551Z,9.92
2024-02-26T11:28:46.040Z,9.90
2024-02-26T11:29:54.027Z,9.91
2024-02-26T11:30:56.309Z,9.93
2024-02-26T11:32:01.082Z,9.93
2024-02-26T11:33:03.202Z,9.93
2024-02-26T11:34:05.119Z,9.92
2024-02-26T11:35:08.480Z,9.95
2024-02-26T11:36:15.030Z,9.95
2024-02-26T11:37:18.024Z,9.96
2024-02-26T11:38:24.731Z,9.99
2024-02-26T11:39:26.868Z,10.00
2024-02-26T11:40:29.081Z,10.03
2024-02-26T11:41:31.163Z,10.03
2024-02-26T11:42:34.031Z,10.04
2024-02-26T11:44:02.335Z,10.05
2024-02-26T11:45:04.578Z,10.08
2024-02-26T11:46:25.317Z,10.10
2024-02-26T11:47:28.303Z,10.12
2024-02-26T11:48:30.121Z,10.15
2024-02-26T11:49:32.791Z,10.16
2024-02-26T11:50:40.252Z,10.17
2024-02-26T11:51:43.142Z,10.17
2024-02-26T11:53:23.824Z,10.20
2024-02-26T11:54:45.202Z,10.24
2024-02-26T11:55:46.813Z,10.26
2024-02-26T11:56:49.070Z,10.28
2024-02-26T11:57:50.666Z,10.30
2024-02-26T11:58:58.857Z,10.32
2024-02-26T12:00:14.866Z,10.34
2024-02-26T12:01:41.484Z,10.35
2024-02-26T12:02:59.304Z,10.38
2024-02-26T12:04:03.151Z,10.40
2024-02-26T12:05:10.402Z,10.42
2024-02-26T12:06:12.165Z,10.44
2024-02-26T12:07:14.073Z,10.43
2024-02-26T12:08:18.223Z,10.42
2024-02-26T12:09:39.847Z,10.40
2024-02-26T12:10:42.899Z,10.43
2024-02-26T12:11:44.648Z,10.44
2024-02-26T12:12:46.376Z,10.46
2024-02-26T12:13:48.457Z,10.51
2024-02-26T12:14:55.130Z,10.54
2024-02-26T12:15:59.062Z,10.57
2024-02-26T12:17:01.325Z,10.60
2024-02-26T12:18:04.984Z,10.59
2024-02-26T12:19:08.335Z,10.63
2024-02-26T12:20:14.321Z,10.65
2024-02-26T12:21:16.596Z,10.67
2024-02-26T12:22:18.390Z,10.70
2024-02-26T12:23:19.976Z,10.75
2024-02-26T12:24:22.178Z,10.77
2024-02-26T12:25:27.728Z,10.78
2024-02-26T12:26:29.396Z,10.82
2024-02-26T12:27:31.315Z,10.83
2024-02-26T12:28:33.082Z,10.85
2024-02-26T12:29:34.942Z,10.85
2024-02-26T12:30:36.654Z,10.87
2024-02-26T12:31:39.959Z,10.88
2024-02-26T12:32:41.592Z,10.88
2024-02-26T12:33:43.735Z,10.88
2024-02-26T12:34:45.597Z,10.91
2024-02-26T12:35:49.280Z,10.95
2024-02-26T12:36:51.669Z,10.99
2024-02-26T12:37:54.662Z,11.02
2024-02-26T12:38:57.069Z,11.01
2024-02-26T12:39:58.756Z,11.02
2024-02-26T12:41:00.367Z,11.02
2024-02-26T12:42:03.576Z,11.00
2024-02-26T12:43:05.946Z,11.01
2024-02-26T12:44:09.406Z,11.03
2024-02-26T12:45:13.019Z,11.00
2024-02-26T12:46:16.674Z,11.01
2024-02-26T12:47:19.542Z,11.00
2024-02-26T12:48:21.811Z,11.00
2024-02-26T12:49:23.852Z,11.01
2024-02-26T12:50:25.641Z,11.02
2024-02-26T12:51:27.918Z,11.03
2024-02-26T12:52:29.699Z,11.02
2024-02-26T12:53:31.555Z,11.02
2024-02-26T12:54:35.430Z,11.04
2024-02-26T12:55:40.644Z,11.06
2024-02-26T12:56:42.906Z,11.07
2024-02-26T12:57:46.104Z,11.10
2024-02-26T12:58:48.758Z,11.12
2024-02-26T12:59:50.669Z,11.14
2024-02-26T13:00:53.450Z,11.12
2024-02-26T13:01:55.327Z,11.12
2024-02-26T13:02:57.788Z,11.13
2024-02-26T13:04:02.035Z,11.14
2024-02-26T13:05:05.387Z,11.15
2024-02-26T13:06:07.753Z,11.15
2024-02-26T13:07:09.510Z,11.15
2024-02-26T13:08:17.982Z,11.13
2024-02-26T13:09:19.999Z,11.11
2024-02-26T13:10:22.248Z,11.12
2024-02-26T13:11:23.889Z,11.14
2024-02-26T13:12:25.568Z,11.15
2024-02-26T13:13:27.297Z,11.15
2024-02-26T13:14:28.932Z,11.14
2024-02-26T13:15:30.692Z,11.17
2024-02-26T13:16:32.352Z,11.16
2024-02-26T13:17:34.161Z,11.16
2024-02-26T13:18:37.658Z,11.16
2024-02-26T13:19:50.191Z,11.17
2024-02-26T13:20:51.915Z,11.19
2024-02-26T13:21:53.554Z,11.21
2024-02-26T13:23:08.329Z,11.22
2024-02-26T13:24:09.988Z,11.23
2024-02-26T13:25:11.630Z,11.24
2024-02-26T13:26:16.935Z,11.23
2024-02-26T13:27:25.083Z,11.22
2024-02-26T13:28:28.967Z,11.24
2024-02-26T13:29:30.602Z,11.25
2024-02-26T13:30:32.377Z,11.25
2024-02-26T13:31:44.623Z,11.26
2024-02-26T13:32:48.315Z,11.29
2024-02-26T13:33:50.670Z,11.29
2024-02-26T13:34:52.486Z,11.30
2024-02-26T13:35:55.316Z,11.30
2024-02-26T13:36:58.103Z,11.31
2024-02-26T13:37:59.744Z,11.31
2024-02-26T13:39:02.477Z,11.29
2024-02-26T13:40:11.844Z,11.30
2024-02-26T13:41:13.427Z,11.31
2024-02-26T13:42:15.070Z,11.32
2024-02-26T13:43:16.718Z,11.31
2024-02-26T13:44:19.120Z,11.32
2024-02-26T13:45:20.764Z,11.32
2024-02-26T13:46:22.416Z,11.31
2024-02-26T13:47:24.223Z,11.32
2024-02-26T13:48:26.711Z,11.35
2024-02-26T13:49:28.428Z,11.34
2024-02-26T13:50:30.409Z,11.35